sensor_id;sensor_type;location;lat;lon;timestamp;P1;durP1;ratioP1;P2;durP2;ratioP2
5999;SDS011;3028;49.468;7.694;2023-04-28T00:01:10;4.28;;;3.38;;
5999;SDS011;3028;49.468;7.694;2023-04-28T00:03:12;4.72;;;3.38;;
5999;SDS011;3028;49.468;7.694;2023-04-28T00:05:14;3.78;;;3.40;;
5999;SDS011;3028;49.468;7.694;2023-04-28T00:07:16;5.18;;;3.08;;
5999;SDS011;3028;49.468;7.694;2023-04-28T00:09:18;3.15;;;2.95;;
5999;SDS011;3028;49.468;7.694;2023-04-28T00:11:19;3.63;;;3.33;;
5999;SDS011;3028;49.468;7.694;2023-04-28T00:13:24;3.90;;;3.55;;
5999;SDS011;3028;49.468;7.694;2023-04-28T00:15:26;4.20;;;3.78;;
5999;SDS011;3028;49.468;7.694;2023-04-28T00:17:28;3.83;;;3.42;;
5999;SDS011;3028;49.468;7.694;2023-04-28T00:19:30;3.17;;;2.80;;
5999;SDS011;3028;49.468;7.694;2023-04-28T00:21:31;6.60;;;3.28;;
5999;SDS011;3028;49.468;7.694;2023-04-28T00:23:33;3.13;;;2.90;;
5999;SDS011;3028;49.468;7.694;2023-04-28T00:25:35;3.92;;;2.67;;
5999;SDS011;3028;49.468;7.694;2023-04-28T00:27:37;3.28;;;2.97;;
5999;SDS011;3028;49.468;7.694;2023-04-28T00:29:39;3.95;;;2.70;;
5999;SDS011;3028;49.468;7.694;2023-04-28T00:31:40;2.88;;;2.63;;
5999;SDS011;3028;49.468;7.694;2023-04-28T00:33:42;3.25;;;2.95;;
5999;SDS011;3028;49.468;7.694;2023-04-28T00:35:44;4.60;;;3.72;;
5999;SDS011;3028;49.468;7.694;2023-04-28T00:37:46;4.68;;;3.00;;
5999;SDS011;3028;49.468;7.694;2023-04-28T00:39:48;3.15;;;2.88;;
5999;SDS011;3028;49.468;7.694;2023-04-28T00:41:49;4.22;;;3.38;;
5999;SDS011;3028;49.468;7.694;2023-04-28T00:43:51;3.78;;;3.17;;
5999;SDS011;3028;49.468;7.694;2023-04-28T00:45:53;3.08;;;2.88;;
5999;SDS011;3028;49.468;7.694;2023-04-28T00:47:55;3.85;;;3.47;;
5999;SDS011;3028;49.468;7.694;2023-04-28T00:49:58;2.75;;;2.55;;
5999;SDS011;3028;49.468;7.694;2023-04-28T00:52:01;3.20;;;2.30;;
5999;SDS011;3028;49.468;7.694;2023-04-28T00:54:05;3.58;;;3.28;;
5999;SDS011;3028;49.468;7.694;2023-04-28T00:56:06;3.03;;;2.78;;
5999;SDS011;3028;49.468;7.694;2023-04-28T00:58:08;2.83;;;2.63;;
5999;SDS011;3028;49.468;7.694;2023-04-28T01:00:10;3.42;;;3.15;;
5999;SDS011;3028;49.468;7.694;2023-04-28T01:02:13;3.85;;;2.90;;
5999;SDS011;3028;49.468;7.694;2023-04-28T01:04:19;4.60;;;3.30;;
5999;SDS011;3028;49.468;7.694;2023-04-28T01:06:21;7.80;;;2.88;;
5999;SDS011;3028;49.468;7.694;2023-04-28T01:08:26;3.80;;;3.38;;
5999;SDS011;3028;49.468;7.694;2023-04-28T01:10:28;5.18;;;3.53;;
5999;SDS011;3028;49.468;7.694;2023-04-28T01:12:30;4.63;;;2.80;;
5999;SDS011;3028;49.468;7.694;2023-04-28T01:14:32;4.22;;;3.35;;
5999;SDS011;3028;49.468;7.694;2023-04-28T01:16:34;3.65;;;2.83;;
5999;SDS011;3028;49.468;7.694;2023-04-28T01:18:36;3.38;;;2.97;;
5999;SDS011;3028;49.468;7.694;2023-04-28T01:20:38;3.80;;;3.50;;
5999;SDS011;3028;49.468;7.694;2023-04-28T01:22:39;3.55;;;3.05;;
5999;SDS011;3028;49.468;7.694;2023-04-28T01:24:41;4.10;;;3.15;;
5999;SDS011;3028;49.468;7.694;2023-04-28T01:29:19;4.38;;;3.85;;
5999;SDS011;3028;49.468;7.694;2023-04-28T01:31:21;4.13;;;2.75;;
5999;SDS011;3028;49.468;7.694;2023-04-28T01:33:22;3.70;;;3.38;;
5999;SDS011;3028;49.468;7.694;2023-04-28T01:35:24;4.28;;;3.63;;
5999;SDS011;3028;49.468;7.694;2023-04-28T01:37:26;4.22;;;3.63;;
5999;SDS011;3028;49.468;7.694;2023-04-28T01:39:27;3.08;;;2.88;;
5999;SDS011;3028;49.468;7.694;2023-04-28T01:41:29;4.50;;;4.10;;
5999;SDS011;3028;49.468;7.694;2023-04-28T01:43:31;4.63;;;4.22;;
5999;SDS011;3028;49.468;7.694;2023-04-28T01:45:32;5.68;;;3.92;;
5999;SDS011;3028;49.468;7.694;2023-04-28T01:47:34;3.90;;;3.60;;
5999;SDS011;3028;49.468;7.694;2023-04-28T01:49:36;3.60;;;3.30;;
5999;SDS011;3028;49.468;7.694;2023-04-28T01:51:37;3.90;;;3.17;;
5999;SDS011;3028;49.468;7.694;2023-04-28T01:53:40;4.07;;;3.70;;
5999;SDS011;3028;49.468;7.694;2023-04-28T01:55:42;4.53;;;3.22;;
5999;SDS011;3028;49.468;7.694;2023-04-28T01:57:43;5.25;;;3.67;;
5999;SDS011;3028;49.468;7.694;2023-04-28T01:59:45;4.13;;;3.72;;
5999;SDS011;3028;49.468;7.694;2023-04-28T02:01:47;5.25;;;4.68;;
5999;SDS011;3028;49.468;7.694;2023-04-28T02:03:49;4.78;;;4.38;;
5999;SDS011;3028;49.468;7.694;2023-04-28T02:05:51;5.15;;;4.65;;
5999;SDS011;3028;49.468;7.694;2023-04-28T02:07:53;4.35;;;3.75;;
5999;SDS011;3028;49.468;7.694;2023-04-28T02:09:54;7.40;;;3.67;;
5999;SDS011;3028;49.468;7.694;2023-04-28T02:11:56;6.93;;;4.60;;
5999;SDS011;3028;49.468;7.694;2023-04-28T02:13:57;4.15;;;3.85;;
5999;SDS011;3028;49.468;7.694;2023-04-28T02:15:59;3.95;;;3.60;;
5999;SDS011;3028;49.468;7.694;2023-04-28T02:18:02;3.83;;;2.83;;
5999;SDS011;3028;49.468;7.694;2023-04-28T02:20:04;4.78;;;3.83;;
5999;SDS011;3028;49.468;7.694;2023-04-28T02:22:06;5.10;;;4.03;;
5999;SDS011;3028;49.468;7.694;2023-04-28T02:24:08;4.00;;;3.70;;
5999;SDS011;3028;49.468;7.694;2023-04-28T02:26:10;4.10;;;3.75;;
5999;SDS011;3028;49.468;7.694;2023-04-28T02:28:11;4.75;;;3.70;;
5999;SDS011;3028;49.468;7.694;2023-04-28T02:30:13;3.20;;;2.90;;
5999;SDS011;3028;49.468;7.694;2023-04-28T02:32:15;4.55;;;4.13;;
5999;SDS011;3028;49.468;7.694;2023-04-28T02:34:16;5.47;;;3.90;;
5999;SDS011;3028;49.468;7.694;2023-04-28T02:36:18;3.67;;;3.38;;
5999;SDS011;3028;49.468;7.694;2023-04-28T02:38:20;4.63;;;4.22;;
5999;SDS011;3028;49.468;7.694;2023-04-28T02:40:22;5.45;;;3.83;;
5999;SDS011;3028;49.468;7.694;2023-04-28T02:42:23;4.28;;;3.97;;
5999;SDS011;3028;49.468;7.694;2023-04-28T02:44:25;6.28;;;4.45;;
5999;SDS011;3028;49.468;7.694;2023-04-28T02:46:27;5.57;;;4.55;;
5999;SDS011;3028;49.468;7.694;2023-04-28T02:48:29;5.55;;;4.38;;
5999;SDS011;3028;49.468;7.694;2023-04-28T02:50:30;5.00;;;4.55;;
5999;SDS011;3028;49.468;7.694;2023-04-28T02:52:32;4.95;;;4.47;;
5999;SDS011;3028;49.468;7.694;2023-04-28T02:54:34;4.55;;;4.18;;
5999;SDS011;3028;49.468;7.694;2023-04-28T02:56:37;4.65;;;4.25;;
5999;SDS011;3028;49.468;7.694;2023-04-28T02:58:41;4.38;;;4.07;;
5999;SDS011;3028;49.468;7.694;2023-04-28T03:00:42;4.63;;;4.30;;
5999;SDS011;3028;49.468;7.694;2023-04-28T03:02:44;3.58;;;3.28;;
5999;SDS011;3028;49.468;7.694;2023-04-28T03:04:46;4.38;;;3.97;;
5999;SDS011;3028;49.468;7.694;2023-04-28T03:06:48;4.30;;;3.90;;
5999;SDS011;3028;49.468;7.694;2023-04-28T03:08:50;7.35;;;4.30;;
5999;SDS011;3028;49.468;7.694;2023-04-28T03:10:52;4.30;;;3.92;;
5999;SDS011;3028;49.468;7.694;2023-04-28T03:12:53;5.22;;;4.72;;
5999;SDS011;3028;49.468;7.694;2023-04-28T03:14:55;4.10;;;3.80;;
5999;SDS011;3028;49.468;7.694;2023-04-28T03:16:57;22.73;;;20.55;;
5999;SDS011;3028;49.468;7.694;2023-04-28T03:18:59;16.40;;;14.80;;
5999;SDS011;3028;49.468;7.694;2023-04-28T03:21:01;17.40;;;15.88;;
5999;SDS011;3028;49.468;7.694;2023-04-28T03:23:03;14.57;;;11.85;;
5999;SDS011;3028;49.468;7.694;2023-04-28T03:25:05;10.60;;;8.63;;
5999;SDS011;3028;49.468;7.694;2023-04-28T03:27:06;6.78;;;6.28;;
5999;SDS011;3028;49.468;7.694;2023-04-28T03:29:08;10.32;;;7.32;;
5999;SDS011;3028;49.468;7.694;2023-04-28T03:31:10;6.43;;;5.85;;
5999;SDS011;3028;49.468;7.694;2023-04-28T03:33:11;5.70;;;5.30;;
5999;SDS011;3028;49.468;7.694;2023-04-28T03:35:13;6.30;;;5.80;;
5999;SDS011;3028;49.468;7.694;2023-04-28T03:37:15;4.97;;;4.60;;
5999;SDS011;3028;49.468;7.694;2023-04-28T03:39:16;5.78;;;5.28;;
5999;SDS011;3028;49.468;7.694;2023-04-28T03:41:18;4.78;;;3.80;;
5999;SDS011;3028;49.468;7.694;2023-04-28T03:43:20;5.38;;;4.88;;
5999;SDS011;3028;49.468;7.694;2023-04-28T03:45:22;5.10;;;4.70;;
5999;SDS011;3028;49.468;7.694;2023-04-28T03:47:24;6.10;;;5.63;;
5999;SDS011;3028;49.468;7.694;2023-04-28T03:49:25;6.43;;;5.47;;
5999;SDS011;3028;49.468;7.694;2023-04-28T03:51:28;6.35;;;5.93;;
5999;SDS011;3028;49.468;7.694;2023-04-28T03:53:30;5.88;;;5.47;;
5999;SDS011;3028;49.468;7.694;2023-04-28T03:55:32;5.15;;;4.65;;
5999;SDS011;3028;49.468;7.694;2023-04-28T03:57:34;6.70;;;5.22;;
5999;SDS011;3028;49.468;7.694;2023-04-28T03:59:36;6.13;;;5.50;;
5999;SDS011;3028;49.468;7.694;2023-04-28T04:01:38;7.47;;;5.85;;
5999;SDS011;3028;49.468;7.694;2023-04-28T04:03:41;5.05;;;4.53;;
5999;SDS011;3028;49.468;7.694;2023-04-28T04:05:43;5.43;;;4.97;;
5999;SDS011;3028;49.468;7.694;2023-04-28T04:07:45;5.82;;;5.40;;
5999;SDS011;3028;49.468;7.694;2023-04-28T04:09:47;6.68;;;6.07;;
5999;SDS011;3028;49.468;7.694;2023-04-28T04:11:55;4.90;;;4.50;;
5999;SDS011;3028;49.468;7.694;2023-04-28T04:14:23;9.90;;;5.28;;
5999;SDS011;3028;49.468;7.694;2023-04-28T04:16:59;6.53;;;5.95;;
5999;SDS011;3028;49.468;7.694;2023-04-28T04:19:08;5.28;;;4.80;;
5999;SDS011;3028;49.468;7.694;2023-04-28T04:21:10;6.13;;;5.55;;
5999;SDS011;3028;49.468;7.694;2023-04-28T04:23:11;6.70;;;6.00;;
5999;SDS011;3028;49.468;7.694;2023-04-28T04:25:13;6.55;;;5.90;;
5999;SDS011;3028;49.468;7.694;2023-04-28T04:27:15;6.38;;;5.78;;
5999;SDS011;3028;49.468;7.694;2023-04-28T04:29:16;7.07;;;5.03;;
5999;SDS011;3028;49.468;7.694;2023-04-28T04:31:18;6.03;;;5.53;;
5999;SDS011;3028;49.468;7.694;2023-04-28T04:33:20;6.40;;;5.85;;
5999;SDS011;3028;49.468;7.694;2023-04-28T04:35:22;5.38;;;4.97;;
5999;SDS011;3028;49.468;7.694;2023-04-28T04:37:23;5.03;;;4.63;;
5999;SDS011;3028;49.468;7.694;2023-04-28T04:39:25;6.03;;;5.43;;
5999;SDS011;3028;49.468;7.694;2023-04-28T04:41:27;9.27;;;5.50;;
5999;SDS011;3028;49.468;7.694;2023-04-28T04:43:28;6.85;;;6.35;;
5999;SDS011;3028;49.468;7.694;2023-04-28T04:45:31;6.63;;;6.03;;
5999;SDS011;3028;49.468;7.694;2023-04-28T04:47:33;6.85;;;6.25;;
5999;SDS011;3028;49.468;7.694;2023-04-28T04:49:35;6.28;;;5.63;;
5999;SDS011;3028;49.468;7.694;2023-04-28T04:51:37;5.32;;;4.82;;
5999;SDS011;3028;49.468;7.694;2023-04-28T04:53:39;7.00;;;6.40;;
5999;SDS011;3028;49.468;7.694;2023-04-28T04:55:40;7.68;;;6.60;;
5999;SDS011;3028;49.468;7.694;2023-04-28T04:57:42;7.50;;;6.80;;
5999;SDS011;3028;49.468;7.694;2023-04-28T04:59:44;5.75;;;5.18;;
5999;SDS011;3028;49.468;7.694;2023-04-28T05:01:46;5.85;;;5.45;;
5999;SDS011;3028;49.468;7.694;2023-04-28T05:03:48;10.10;;;6.75;;
5999;SDS011;3028;49.468;7.694;2023-04-28T05:05:49;6.18;;;5.60;;
5999;SDS011;3028;49.468;7.694;2023-04-28T05:07:51;6.05;;;5.35;;
5999;SDS011;3028;49.468;7.694;2023-04-28T05:09:53;5.82;;;5.32;;
5999;SDS011;3028;49.468;7.694;2023-04-28T05:11:55;7.05;;;4.95;;
5999;SDS011;3028;49.468;7.694;2023-04-28T05:13:56;6.05;;;5.45;;
5999;SDS011;3028;49.468;7.694;2023-04-28T05:15:58;9.93;;;5.10;;
5999;SDS011;3028;49.468;7.694;2023-04-28T05:18:00;7.85;;;5.22;;
5999;SDS011;3028;49.468;7.694;2023-04-28T05:20:17;6.05;;;5.53;;
5999;SDS011;3028;49.468;7.694;2023-04-28T05:22:19;5.00;;;4.55;;
5999;SDS011;3028;49.468;7.694;2023-04-28T05:24:21;5.03;;;4.60;;
5999;SDS011;3028;49.468;7.694;2023-04-28T05:26:26;5.30;;;4.20;;
5999;SDS011;3028;49.468;7.694;2023-04-28T05:28:29;4.82;;;4.53;;
5999;SDS011;3028;49.468;7.694;2023-04-28T05:30:31;4.90;;;4.50;;
5999;SDS011;3028;49.468;7.694;2023-04-28T05:32:39;3.40;;;3.10;;
5999;SDS011;3028;49.468;7.694;2023-04-28T05:34:41;5.68;;;5.07;;
5999;SDS011;3028;49.468;7.694;2023-04-28T05:36:43;5.40;;;4.90;;
5999;SDS011;3028;49.468;7.694;2023-04-28T05:38:46;5.70;;;5.25;;
5999;SDS011;3028;49.468;7.694;2023-04-28T05:40:48;4.90;;;4.60;;
5999;SDS011;3028;49.468;7.694;2023-04-28T05:42:54;8.07;;;4.30;;
5999;SDS011;3028;49.468;7.694;2023-04-28T05:44:57;5.43;;;4.93;;
5999;SDS011;3028;49.468;7.694;2023-04-28T05:47:01;5.63;;;5.22;;
5999;SDS011;3028;49.468;7.694;2023-04-28T05:49:04;8.38;;;7.63;;
5999;SDS011;3028;49.468;7.694;2023-04-28T05:51:06;6.78;;;6.28;;
5999;SDS011;3028;49.468;7.694;2023-04-28T05:53:08;7.82;;;7.07;;
5999;SDS011;3028;49.468;7.694;2023-04-28T05:55:10;5.75;;;5.35;;
5999;SDS011;3028;49.468;7.694;2023-04-28T05:57:13;7.80;;;5.97;;
5999;SDS011;3028;49.468;7.694;2023-04-28T05:59:15;6.93;;;6.30;;
5999;SDS011;3028;49.468;7.694;2023-04-28T06:01:22;6.70;;;6.10;;
5999;SDS011;3028;49.468;7.694;2023-04-28T06:03:23;6.38;;;5.82;;
5999;SDS011;3028;49.468;7.694;2023-04-28T06:05:25;6.68;;;6.07;;
5999;SDS011;3028;49.468;7.694;2023-04-28T06:07:28;7.40;;;6.70;;
5999;SDS011;3028;49.468;7.694;2023-04-28T06:09:30;10.52;;;5.22;;
5999;SDS011;3028;49.468;7.694;2023-04-28T06:11:32;6.65;;;6.07;;
5999;SDS011;3028;49.468;7.694;2023-04-28T06:13:35;8.73;;;6.95;;
5999;SDS011;3028;49.468;7.694;2023-04-28T06:15:37;7.38;;;6.78;;
5999;SDS011;3028;49.468;7.694;2023-04-28T06:17:46;7.28;;;6.68;;
5999;SDS011;3028;49.468;7.694;2023-04-28T06:19:48;6.32;;;5.85;;
5999;SDS011;3028;49.468;7.694;2023-04-28T06:21:53;8.00;;;6.10;;
5999;SDS011;3028;49.468;7.694;2023-04-28T06:23:55;5.53;;;5.03;;
5999;SDS011;3028;49.468;7.694;2023-04-28T06:25:57;7.25;;;6.55;;
5999;SDS011;3028;49.468;7.694;2023-04-28T06:27:59;6.03;;;5.63;;
5999;SDS011;3028;49.468;7.694;2023-04-28T06:30:00;6.97;;;6.47;;
5999;SDS011;3028;49.468;7.694;2023-04-28T06:32:03;10.30;;;9.50;;
5999;SDS011;3028;49.468;7.694;2023-04-28T06:34:05;10.80;;;8.32;;
5999;SDS011;3028;49.468;7.694;2023-04-28T06:36:09;8.52;;;7.93;;
5999;SDS011;3028;49.468;7.694;2023-04-28T06:38:20;8.93;;;8.23;;
5999;SDS011;3028;49.468;7.694;2023-04-28T06:40:22;9.60;;;8.73;;
5999;SDS011;3028;49.468;7.694;2023-04-28T06:42:27;10.13;;;9.25;;
5999;SDS011;3028;49.468;7.694;2023-04-28T06:44:30;8.23;;;7.53;;
5999;SDS011;3028;49.468;7.694;2023-04-28T06:46:33;7.78;;;7.07;;
5999;SDS011;3028;49.468;7.694;2023-04-28T06:48:34;7.78;;;7.10;;
5999;SDS011;3028;49.468;7.694;2023-04-28T06:50:36;8.38;;;6.82;;
5999;SDS011;3028;49.468;7.694;2023-04-28T06:52:38;6.53;;;5.90;;
5999;SDS011;3028;49.468;7.694;2023-04-28T06:54:40;7.38;;;6.78;;
5999;SDS011;3028;49.468;7.694;2023-04-28T06:56:42;7.38;;;6.70;;
5999;SDS011;3028;49.468;7.694;2023-04-28T06:58:44;6.70;;;6.15;;
5999;SDS011;3028;49.468;7.694;2023-04-28T07:00:45;6.50;;;6.00;;
5999;SDS011;3028;49.468;7.694;2023-04-28T07:02:47;6.13;;;5.72;;
5999;SDS011;3028;49.468;7.694;2023-04-28T07:04:49;5.95;;;5.55;;
5999;SDS011;3028;49.468;7.694;2023-04-28T07:06:51;6.47;;;6.07;;
5999;SDS011;3028;49.468;7.694;2023-04-28T07:08:53;6.45;;;5.97;;
5999;SDS011;3028;49.468;7.694;2023-04-28T07:10:54;6.05;;;5.55;;
5999;SDS011;3028;49.468;7.694;2023-04-28T07:12:56;5.63;;;5.13;;
5999;SDS011;3028;49.468;7.694;2023-04-28T07:14:59;6.93;;;6.07;;
5999;SDS011;3028;49.468;7.694;2023-04-28T07:17:01;8.20;;;7.57;;
5999;SDS011;3028;49.468;7.694;2023-04-28T07:19:03;6.70;;;6.22;;
5999;SDS011;3028;49.468;7.694;2023-04-28T07:21:05;6.15;;;5.65;;
5999;SDS011;3028;49.468;7.694;2023-04-28T07:23:07;5.78;;;5.28;;
5999;SDS011;3028;49.468;7.694;2023-04-28T07:25:08;5.70;;;5.20;;
5999;SDS011;3028;49.468;7.694;2023-04-28T07:27:10;5.45;;;5.05;;
5999;SDS011;3028;49.468;7.694;2023-04-28T07:29:12;5.45;;;5.05;;
5999;SDS011;3028;49.468;7.694;2023-04-28T07:31:15;5.55;;;5.15;;
5999;SDS011;3028;49.468;7.694;2023-04-28T07:33:16;5.55;;;5.15;;
5999;SDS011;3028;49.468;7.694;2023-04-28T07:35:21;5.93;;;5.53;;
5999;SDS011;3028;49.468;7.694;2023-04-28T07:37:23;5.55;;;5.15;;
5999;SDS011;3028;49.468;7.694;2023-04-28T07:39:25;5.18;;;4.68;;
5999;SDS011;3028;49.468;7.694;2023-04-28T07:41:27;5.70;;;5.30;;
5999;SDS011;3028;49.468;7.694;2023-04-28T07:43:29;5.07;;;4.68;;
5999;SDS011;3028;49.468;7.694;2023-04-28T07:45:31;4.40;;;4.07;;
5999;SDS011;3028;49.468;7.694;2023-04-28T07:47:33;4.45;;;4.15;;
5999;SDS011;3028;49.468;7.694;2023-04-28T07:49:35;4.43;;;4.03;;
5999;SDS011;3028;49.468;7.694;2023-04-28T07:51:37;4.50;;;4.20;;
5999;SDS011;3028;49.468;7.694;2023-04-28T07:53:38;5.47;;;5.07;;
5999;SDS011;3028;49.468;7.694;2023-04-28T07:55:40;4.85;;;4.35;;
5999;SDS011;3028;49.468;7.694;2023-04-28T07:57:43;4.18;;;3.88;;
5999;SDS011;3028;49.468;7.694;2023-04-28T07:59:45;4.43;;;4.13;;
5999;SDS011;3028;49.468;7.694;2023-04-28T08:01:47;4.32;;;3.92;;
5999;SDS011;3028;49.468;7.694;2023-04-28T08:03:49;4.13;;;3.83;;
5999;SDS011;3028;49.468;7.694;2023-04-28T08:05:51;4.03;;;3.72;;
5999;SDS011;3028;49.468;7.694;2023-04-28T08:07:53;4.40;;;3.00;;
5999;SDS011;3028;49.468;7.694;2023-04-28T08:09:55;3.72;;;3.42;;
5999;SDS011;3028;49.468;7.694;2023-04-28T08:11:57;3.92;;;2.67;;
5999;SDS011;3028;49.468;7.694;2023-04-28T08:14:02;3.97;;;3.67;;
5999;SDS011;3028;49.468;7.694;2023-04-28T08:16:04;3.60;;;3.30;;
5999;SDS011;3028;49.468;7.694;2023-04-28T08:18:07;3.00;;;2.78;;
5999;SDS011;3028;49.468;7.694;2023-04-28T08:20:09;4.60;;;2.78;;
5999;SDS011;3028;49.468;7.694;2023-04-28T08:22:11;2.90;;;2.70;;
5999;SDS011;3028;49.468;7.694;2023-04-28T08:24:13;2.45;;;2.25;;
5999;SDS011;3028;49.468;7.694;2023-04-28T08:26:16;1.67;;;1.58;;
5999;SDS011;3028;49.468;7.694;2023-04-28T08:28:17;2.25;;;2.10;;
5999;SDS011;3028;49.468;7.694;2023-04-28T08:30:19;2.15;;;1.98;;
5999;SDS011;3028;49.468;7.694;2023-04-28T08:32:21;2.40;;;2.20;;
5999;SDS011;3028;49.468;7.694;2023-04-28T08:34:23;1.75;;;1.65;;
5999;SDS011;3028;49.468;7.694;2023-04-28T08:36:25;1.98;;;1.77;;
5999;SDS011;3028;49.468;7.694;2023-04-28T08:38:32;1.88;;;1.77;;
5999;SDS011;3028;49.468;7.694;2023-04-28T08:40:33;1.75;;;1.65;;
5999;SDS011;3028;49.468;7.694;2023-04-28T08:42:35;2.10;;;2.00;;
5999;SDS011;3028;49.468;7.694;2023-04-28T08:44:38;2.17;;;2.05;;
5999;SDS011;3028;49.468;7.694;2023-04-28T08:46:40;2.13;;;2.03;;
5999;SDS011;3028;49.468;7.694;2023-04-28T08:48:43;2.90;;;2.70;;
5999;SDS011;3028;49.468;7.694;2023-04-28T08:50:50;2.42;;;2.22;;
5999;SDS011;3028;49.468;7.694;2023-04-28T08:52:53;1.95;;;1.83;;
5999;SDS011;3028;49.468;7.694;2023-04-28T08:55:00;3.15;;;2.25;;
5999;SDS011;3028;49.468;7.694;2023-04-28T08:57:07;2.80;;;2.60;;
5999;SDS011;3028;49.468;7.694;2023-04-28T08:59:09;3.00;;;2.80;;
5999;SDS011;3028;49.468;7.694;2023-04-28T09:01:13;3.17;;;2.53;;
5999;SDS011;3028;49.468;7.694;2023-04-28T09:03:20;3.47;;;2.75;;
5999;SDS011;3028;49.468;7.694;2023-04-28T09:05:22;2.50;;;2.30;;
5999;SDS011;3028;49.468;7.694;2023-04-28T09:07:28;2.63;;;2.42;;
5999;SDS011;3028;49.468;7.694;2023-04-28T09:09:30;2.08;;;1.98;;
5999;SDS011;3028;49.468;7.694;2023-04-28T09:11:56;2.15;;;1.95;;
5999;SDS011;3028;49.468;7.694;2023-04-28T09:14:12;2.58;;;2.45;;
5999;SDS011;3028;49.468;7.694;2023-04-28T09:16:15;2.50;;;2.30;;
5999;SDS011;3028;49.468;7.694;2023-04-28T09:18:16;2.65;;;2.45;;
5999;SDS011;3028;49.468;7.694;2023-04-28T09:20:26;2.55;;;2.35;;
5999;SDS011;3028;49.468;7.694;2023-04-28T09:22:29;2.30;;;2.10;;
5999;SDS011;3028;49.468;7.694;2023-04-28T09:24:32;3.35;;;3.05;;
5999;SDS011;3028;49.468;7.694;2023-04-28T09:26:55;2.78;;;2.58;;
5999;SDS011;3028;49.468;7.694;2023-04-28T09:29:10;2.63;;;2.42;;
5999;SDS011;3028;49.468;7.694;2023-04-28T09:31:23;1.90;;;1.63;;
5999;SDS011;3028;49.468;7.694;2023-04-28T09:33:26;2.85;;;2.38;;
5999;SDS011;3028;49.468;7.694;2023-04-28T09:35:38;2.50;;;2.30;;
5999;SDS011;3028;49.468;7.694;2023-04-28T09:37:44;1.60;;;1.50;;
5999;SDS011;3028;49.468;7.694;2023-04-28T09:39:50;1.70;;;1.60;;
5999;SDS011;3028;49.468;7.694;2023-04-28T09:41:52;2.97;;;1.63;;
5999;SDS011;3028;49.468;7.694;2023-04-28T09:44:08;2.42;;;1.95;;
5999;SDS011;3028;49.468;7.694;2023-04-28T09:46:11;2.75;;;2.03;;
5999;SDS011;3028;49.468;7.694;2023-04-28T09:48:36;1.55;;;1.20;;
5999;SDS011;3028;49.468;7.694;2023-04-28T09:50:49;2.00;;;1.75;;
5999;SDS011;3028;49.468;7.694;2023-04-28T09:53:16;2.03;;;1.48;;
5999;SDS011;3028;49.468;7.694;2023-04-28T09:55:33;1.33;;;1.23;;
5999;SDS011;3028;49.468;7.694;2023-04-28T09:57:37;1.52;;;1.20;;
5999;SDS011;3028;49.468;7.694;2023-04-28T09:59:39;1.95;;;1.17;;
5999;SDS011;3028;49.468;7.694;2023-04-28T10:01:42;1.35;;;1.25;;
5999;SDS011;3028;49.468;7.694;2023-04-28T10:03:53;1.30;;;1.20;;
5999;SDS011;3028;49.468;7.694;2023-04-28T10:05:57;2.40;;;1.17;;
5999;SDS011;3028;49.468;7.694;2023-04-28T10:10:03;1.05;;;1.00;;
5999;SDS011;3028;49.468;7.694;2023-04-28T10:12:07;1.27;;;1.17;;
5999;SDS011;3028;49.468;7.694;2023-04-28T10:14:12;1.00;;;0.98;;
5999;SDS011;3028;49.468;7.694;2023-04-28T10:16:17;1.42;;;0.98;;
5999;SDS011;3028;49.468;7.694;2023-04-28T10:18:25;0.65;;;0.65;;
5999;SDS011;3028;49.468;7.694;2023-04-28T10:20:41;1.05;;;0.73;;
5999;SDS011;3028;49.468;7.694;2023-04-28T10:27:22;1.23;;;0.60;;
5999;SDS011;3028;49.468;7.694;2023-04-28T10:29:38;0.98;;;0.45;;
5999;SDS011;3028;49.468;7.694;2023-04-28T10:34:34;1.17;;;0.73;;
5999;SDS011;3028;49.468;7.694;2023-04-28T10:36:47;0.40;;;0.40;;
5999;SDS011;3028;49.468;7.694;2023-04-28T10:39:09;1.95;;;0.57;;
5999;SDS011;3028;49.468;7.694;2023-04-28T10:41:48;0.40;;;0.40;;
5999;SDS011;3028;49.468;7.694;2023-04-28T10:43:44;0.32;;;0.32;;
5999;SDS011;3028;49.468;7.694;2023-04-28T10:48:10;1.30;;;0.50;;
5999;SDS011;3028;49.468;7.694;2023-04-28T10:50:15;1.05;;;0.50;;
5999;SDS011;3028;49.468;7.694;2023-04-28T10:54:39;0.50;;;0.50;;
5999;SDS011;3028;49.468;7.694;2023-04-28T10:59:26;1.17;;;0.80;;
5999;SDS011;3028;49.468;7.694;2023-04-28T11:01:38;0.75;;;0.68;;
5999;SDS011;3028;49.468;7.694;2023-04-28T11:08:46;0.68;;;0.68;;
5999;SDS011;3028;49.468;7.694;2023-04-28T11:13:33;0.82;;;0.82;;
5999;SDS011;3028;49.468;7.694;2023-04-28T11:15:38;0.82;;;0.60;;
5999;SDS011;3028;49.468;7.694;2023-04-28T11:17:46;0.75;;;0.73;;
5999;SDS011;3028;49.468;7.694;2023-04-28T11:19:57;8.80;;;1.00;;
5999;SDS011;3028;49.468;7.694;2023-04-28T11:22:18;3.40;;;0.82;;
5999;SDS011;3028;49.468;7.694;2023-04-28T11:24:24;0.85;;;0.75;;
5999;SDS011;3028;49.468;7.694;2023-04-28T11:26:44;0.68;;;0.68;;
5999;SDS011;3028;49.468;7.694;2023-04-28T11:28:55;0.95;;;0.85;;
5999;SDS011;3028;49.468;7.694;2023-04-28T11:31:13;0.60;;;0.60;;
5999;SDS011;3028;49.468;7.694;2023-04-28T11:33:19;0.60;;;0.60;;
5999;SDS011;3028;49.468;7.694;2023-04-28T11:35:21;0.88;;;0.80;;
5999;SDS011;3028;49.468;7.694;2023-04-28T11:37:23;1.17;;;0.80;;
5999;SDS011;3028;49.468;7.694;2023-04-28T11:39:29;2.38;;;0.93;;
5999;SDS011;3028;49.468;7.694;2023-04-28T11:41:36;1.10;;;0.65;;
5999;SDS011;3028;49.468;7.694;2023-04-28T11:43:42;0.63;;;0.63;;
5999;SDS011;3028;49.468;7.694;2023-04-28T11:45:57;1.60;;;0.70;;
5999;SDS011;3028;49.468;7.694;2023-04-28T11:48:19;2.95;;;0.70;;
5999;SDS011;3028;49.468;7.694;2023-04-28T11:50:34;4.50;;;0.70;;
5999;SDS011;3028;49.468;7.694;2023-04-28T11:52:48;0.50;;;0.50;;
5999;SDS011;3028;49.468;7.694;2023-04-28T11:54:57;0.60;;;0.60;;
5999;SDS011;3028;49.468;7.694;2023-04-28T11:57:03;1.80;;;0.60;;
5999;SDS011;3028;49.468;7.694;2023-04-28T11:59:06;0.90;;;0.68;;
5999;SDS011;3028;49.468;7.694;2023-04-28T12:01:10;0.65;;;0.65;;
5999;SDS011;3028;49.468;7.694;2023-04-28T12:03:14;0.80;;;0.80;;
5999;SDS011;3028;49.468;7.694;2023-04-28T12:05:18;0.50;;;0.50;;
5999;SDS011;3028;49.468;7.694;2023-04-28T12:07:24;0.50;;;0.50;;
5999;SDS011;3028;49.468;7.694;2023-04-28T12:09:26;0.60;;;0.60;;
5999;SDS011;3028;49.468;7.694;2023-04-28T12:11:28;0.93;;;0.50;;
5999;SDS011;3028;49.468;7.694;2023-04-28T12:13:31;0.60;;;0.60;;
5999;SDS011;3028;49.468;7.694;2023-04-28T12:15:39;2.20;;;0.52;;
5999;SDS011;3028;49.468;7.694;2023-04-28T12:17:44;0.80;;;0.57;;
5999;SDS011;3028;49.468;7.694;2023-04-28T12:19:46;1.85;;;0.55;;
5999;SDS011;3028;49.468;7.694;2023-04-28T12:21:57;1.73;;;0.52;;
5999;SDS011;3028;49.468;7.694;2023-04-28T12:24:05;0.60;;;0.55;;
5999;SDS011;3028;49.468;7.694;2023-04-28T12:26:23;0.40;;;0.40;;
5999;SDS011;3028;49.468;7.694;2023-04-28T12:28:35;0.55;;;0.55;;
5999;SDS011;3028;49.468;7.694;2023-04-28T12:30:42;2.13;;;0.70;;
5999;SDS011;3028;49.468;7.694;2023-04-28T12:32:44;0.70;;;0.70;;
5999;SDS011;3028;49.468;7.694;2023-04-28T12:34:46;2.20;;;0.63;;
5999;SDS011;3028;49.468;7.694;2023-04-28T12:36:48;0.55;;;0.55;;
5999;SDS011;3028;49.468;7.694;2023-04-28T12:38:50;0.60;;;0.60;;
5999;SDS011;3028;49.468;7.694;2023-04-28T12:40:52;0.60;;;0.60;;
5999;SDS011;3028;49.468;7.694;2023-04-28T12:42:55;1.08;;;0.93;;
5999;SDS011;3028;49.468;7.694;2023-04-28T12:44:57;2.72;;;1.98;;
5999;SDS011;3028;49.468;7.694;2023-04-28T12:47:00;1.75;;;1.35;;
5999;SDS011;3028;49.468;7.694;2023-04-28T12:49:03;1.30;;;1.15;;
5999;SDS011;3028;49.468;7.694;2023-04-28T12:51:07;1.55;;;0.90;;
5999;SDS011;3028;49.468;7.694;2023-04-28T12:53:09;1.65;;;0.77;;
5999;SDS011;3028;49.468;7.694;2023-04-28T12:55:11;0.60;;;0.60;;
5999;SDS011;3028;49.468;7.694;2023-04-28T12:57:13;1.35;;;0.68;;
5999;SDS011;3028;49.468;7.694;2023-04-28T12:59:16;1.02;;;0.52;;
5999;SDS011;3028;49.468;7.694;2023-04-28T13:01:18;0.40;;;0.40;;
5999;SDS011;3028;49.468;7.694;2023-04-28T13:03:20;0.40;;;0.40;;
5999;SDS011;3028;49.468;7.694;2023-04-28T13:05:22;0.43;;;0.35;;
5999;SDS011;3028;49.468;7.694;2023-04-28T13:07:24;0.45;;;0.45;;
5999;SDS011;3028;49.468;7.694;2023-04-28T13:09:25;0.52;;;0.40;;
5999;SDS011;3028;49.468;7.694;2023-04-28T13:11:27;0.80;;;0.30;;
5999;SDS011;3028;49.468;7.694;2023-04-28T13:13:29;0.45;;;0.30;;
5999;SDS011;3028;49.468;7.694;2023-04-28T13:15:31;0.30;;;0.30;;
5999;SDS011;3028;49.468;7.694;2023-04-28T13:17:33;0.90;;;0.50;;